Time;durP1;ratioP1;P1;durP2;ratioP2;P2;SDS_P1;SDS_P2;PMS_P1;PMS_P2;Temp;Humidity;BMP_temperature;BMP_pressure;BME280_temperature;BME280_humidity;BME280_pressure;Samples;Min_cycle;Max_cycle;Signal;HPM_P1;HPM_P2
2023/08/29 00:02:59;;;;;;;10.32;5.20;;;;;;;26.68;52.38;101448.78;21072833;28;20044;-59
2023/08/29 00:13:01;;;;;;;8.07;5.35;;;;;;;26.48;51.38;101449.97;21021173;28;20033;-59
2023/08/29 00:23:02;;;;;;;6.50;4.63;;;;;;;26.24;50.18;101452.00;21025090;28;20394;-57
2023/08/29 00:33:05;;;;;;;12.50;4.95;;;;;;;26.15;50.44;101479.09;21039073;28;20040;-59
2023/08/29 00:43:06;;;;;;;13.82;5.97;;;;;;;26.07;50.51;101491.81;21036807;28;20113;-59
2023/08/29 00:53:09;;;;;;;12.85;5.70;;;;;;;25.94;49.75;101512.22;21085405;28;20046;-59
2023/08/29 01:03:14;;;;;;;11.15;4.90;;;;;;;25.84;49.69;101515.97;21037445;28;20459;-58
2023/08/29 01:13:25;;;;;;;6.70;4.88;;;;;;;25.83;49.99;101517.13;20999243;28;20031;-59
2023/08/29 01:23:43;;;;;;;6.95;4.20;;;;;;;25.68;49.43;101506.91;21009939;28;20033;-58
2023/08/29 01:33:44;;;;;;;6.70;4.90;;;;;;;25.70;48.90;101517.81;21032392;28;20102;-60
2023/08/29 01:43:45;;;;;;;7.43;3.83;;;;;;;25.71;49.18;101525.94;20998039;28;20483;-60
2023/08/29 01:53:50;;;;;;;6.78;4.60;;;;;;;25.62;48.63;101522.13;20997460;28;20118;-59
2023/08/29 02:03:51;;;;;;;6.82;4.28;;;;;;;25.53;48.76;101521.13;21038125;28;20093;-60
2023/08/29 02:13:53;;;;;;;6.10;4.22;;;;;;;25.50;49.03;101536.53;21064282;28;20066;-59
2023/08/29 02:23:54;;;;;;;7.90;4.70;;;;;;;25.92;51.19;101540.53;21056455;28;20039;-59
2023/08/29 02:33:56;;;;;;;27.13;6.03;;;;;;;25.92;55.49;101508.88;21055776;28;20043;-59
2023/08/29 02:43:57;;;;;;;12.90;5.30;;;;;;;26.22;53.96;101524.44;21064110;28;20036;-58
2023/08/29 02:53:58;;;;;;;12.40;5.20;;;;;;;26.37;53.60;101521.38;21075262;28;20024;-60
2023/08/29 03:04:00;;;;;;;11.43;4.65;;;;;;;26.44;53.32;101519.06;21064147;28;20506;-61
2023/08/29 03:14:03;;;;;;;9.13;4.57;;;;;;;26.55;52.83;101511.31;21067735;28;20372;-58
2023/08/29 03:24:08;;;;;;;8.95;4.50;;;;;;;26.64;53.15;101508.66;21059761;28;20082;-60
2023/08/29 03:34:09;;;;;;;9.82;4.90;;;;;;;26.72;52.84;101503.16;21038287;28;20563;-59
2023/08/29 03:44:12;;;;;;;5.65;4.22;;;;;;;26.81;53.19;101514.53;21067693;28;20082;-60
2023/08/29 03:54:13;;;;;;;9.38;4.45;;;;;;;26.87;52.97;101513.28;21078864;28;20024;-60
2023/08/29 04:04:15;;;;;;;8.18;4.20;;;;;;;26.90;53.05;101501.44;21065273;28;20394;-60
2023/08/29 04:14:16;;;;;;;4.90;4.20;;;;;;;27.00;53.58;101495.66;21081614;28;20051;-61
2023/08/29 04:24:18;;;;;;;9.48;4.60;;;;;;;27.09;54.08;101498.59;21075322;28;20109;-60
2023/08/29 04:34:25;;;;;;;7.55;4.47;;;;;;;27.11;54.35;101501.94;21049737;28;20090;-58
2023/08/29 04:44:26;;;;;;;5.50;3.85;;;;;;;27.13;54.49;101494.03;21050289;28;20040;-60
2023/08/29 04:54:28;;;;;;;7.88;4.40;;;;;;;27.22;54.78;101488.53;21082180;28;20047;-59
2023/08/29 05:04:29;;;;;;;5.82;4.22;;;;;;;27.28;54.77;101496.53;21024146;28;20074;-59
2023/08/29 05:14:31;;;;;;;6.35;4.70;;;;;;;27.30;54.83;101476.53;21065127;28;20383;-59
2023/08/29 05:24:32;;;;;;;7.20;4.00;;;;;;;27.34;54.77;101467.19;21041890;28;20105;-59
2023/08/29 05:34:34;;;;;;;7.38;4.28;;;;;;;27.38;55.02;101461.78;21078504;28;20105;-61
2023/08/29 05:44:35;;;;;;;5.78;3.92;;;;;;;27.45;54.85;101450.13;21078892;28;20048;-58
2023/08/29 05:54:36;;;;;;;5.70;4.00;;;;;;;27.46;55.05;101447.00;21075592;28;20403;-59
2023/08/29 06:04:38;;;;;;;5.05;4.32;;;;;;;27.49;55.16;101448.31;21047164;28;20086;-58
2023/08/29 06:14:40;;;;;;;7.65;3.50;;;;;;;27.23;50.39;101437.63;21075350;28;20105;-60
2023/08/29 06:24:41;;;;;;;6.95;3.92;;;;;;;26.41;46.21;101437.44;21062700;28;20047;-59
2023/08/29 06:34:43;;;;;;;5.53;3.22;;;;;;;25.97;43.56;101427.47;21076554;28;20386;-60
2023/08/29 06:44:44;;;;;;;6.70;3.03;;;;;;;25.64;42.22;101415.31;21044572;28;20052;-59
2023/08/29 06:54:46;;;;;;;5.03;2.90;;;;;;;25.51;41.52;101392.50;21072887;28;20047;-58
2023/08/29 07:04:47;;;;;;;5.22;3.10;;;;;;;25.37;41.63;101393.53;21030889;28;20051;-59
2023/08/29 07:14:49;;;;;;;4.03;3.20;;;;;;;25.16;41.17;101374.22;21047698;28;20126;-60
2023/08/29 07:24:51;;;;;;;4.10;2.75;;;;;;;25.50;48.12;101378.81;21041966;28;20425;-60
2023/08/29 07:34:52;;;;;;;3.50;3.00;;;;;;;25.77;52.25;101350.97;21075010;28;20441;-59
2023/08/29 07:44:54;;;;;;;3.47;2.75;;;;;;;25.99;53.60;101335.47;21101150;28;20052;-59
2023/08/29 07:54:58;;;;;;;3.85;2.72;;;;;;;26.17;54.28;101336.56;21089730;28;20118;-59
2023/08/29 08:04:59;;;;;;;3.42;2.60;;;;;;;26.32;54.32;101339.94;21062825;28;20048;-59
2023/08/29 08:15:04;;;;;;;3.40;2.85;;;;;;;26.39;54.39;101324.66;21059642;28;20036;-60
2023/08/29 08:25:07;;;;;;;4.20;2.60;;;;;;;26.52;54.30;101333.13;21098715;28;20043;-59
2023/08/29 08:35:10;;;;;;;3.15;2.40;;;;;;;26.68;54.19;101330.03;21091027;28;20112;-58
2023/08/29 08:45:12;;;;;;;2.88;2.50;;;;;;;26.60;54.52;101295.09;21062064;28;20563;-60
2023/08/29 08:55:13;;;;;;;4.03;2.63;;;;;;;26.80;54.31;101311.53;21082360;28;20036;-59
2023/08/29 09:05:15;;;;;;;2.67;1.95;;;;;;;26.89;54.49;101316.41;21024410;28;20407;-60
2023/08/29 09:15:19;;;;;;;4.85;2.67;;;;;;;26.95;54.76;101312.38;21009808;28;20090;-58
2023/08/29 09:25:20;;;;;;;3.00;2.47;;;;;;;27.00;54.61;101315.88;21049135;28;20540;-60
2023/08/29 09:35:24;;;;;;;2.40;1.90;;;;;;;27.05;54.92;101312.13;21065661;28;20066;-60
2023/08/29 09:45:30;;;;;;;2.45;2.25;;;;;;;27.08;54.74;101315.19;21068825;28;20133;-59
2023/08/29 09:55:44;;;;;;;2.35;1.90;;;;;;;27.10;54.68;101326.09;21049889;28;20091;-61
2023/08/29 10:05:46;;;;;;;3.75;2.60;;;;;;;27.16;55.02;101322.03;21009291;28;20453;-59
2023/08/29 10:15:49;;;;;;;3.03;2.22;;;;;;;27.16;54.97;101321.19;21034892;28;20040;-59
2023/08/29 10:25:51;;;;;;;4.65;2.42;;;;;;;27.06;54.87;101302.56;21041119;28;20055;-60
2023/08/29 10:35:53;;;;;;;3.17;1.92;;;;;;;27.27;54.89;101331.91;21067730;28;20110;-59
2023/08/29 10:45:56;;;;;;;3.72;1.90;;;;;;;27.31;54.73;101341.38;21073847;28;20465;-59
2023/08/29 10:56:01;;;;;;;2.17;1.98;;;;;;;27.36;54.73;101340.44;21068959;28;20375;-59
2023/08/29 11:06:02;;;;;;;2.25;1.90;;;;;;;27.36;54.60;101344.06;21070589;28;20073;-60
2023/08/29 11:16:06;;;;;;;2.17;1.73;;;;;;;27.03;50.12;101323.69;21068651;28;20040;-59
2023/08/29 11:26:08;;;;;;;2.65;1.70;;;;;;;26.40;46.59;101335.59;21069239;28;20036;-59
2023/08/29 11:36:10;;;;;;;3.72;1.90;;;;;;;26.08;44.48;101344.84;21046253;28;20070;-59
2023/08/29 11:46:14;;;;;;;1.70;1.55;;;;;;;25.79;43.57;101331.84;21068867;28;20048;-58
2023/08/29 11:56:16;;;;;;;1.52;1.40;;;;;;;25.51;42.81;101332.81;21041060;28;20036;-58
2023/08/29 12:06:25;;;;;;;1.77;1.67;;;;;;;25.35;42.22;101344.25;21066019;28;20153;-59
2023/08/29 12:16:26;;;;;;;1.95;1.70;;;;;;;25.48;49.07;101347.47;21082871;28;20137;-58
2023/08/29 12:26:28;;;;;;;1.95;1.77;;;;;;;25.71;52.97;101334.50;21056727;28;20048;-59
2023/08/29 12:36:29;;;;;;;2.53;1.88;;;;;;;26.03;52.97;101340.16;21055642;28;20040;-58
2023/08/29 12:46:31;;;;;;;5.28;2.30;;;;;;;26.25;52.34;101331.09;21051429;28;20040;-58
2023/08/29 12:56:32;;;;;;;5.55;2.15;;;;;;;25.94;51.16;101327.16;21076894;28;20040;-59
2023/08/29 13:06:34;;;;;;;4.05;2.08;;;;;;;25.87;50.13;101326.69;21082591;28;20055;-58
2023/08/29 13:16:36;;;;;;;4.95;2.40;;;;;;;25.75;49.61;101310.31;21015380;28;20463;-59
2023/08/29 13:26:37;;;;;;;3.63;2.42;;;;;;;25.76;49.47;101326.88;21056442;28;20062;-58
2023/08/29 13:36:41;;;;;;;4.30;2.33;;;;;;;25.73;48.91;101335.03;21057890;28;20390;-59
2023/08/29 13:46:45;;;;;;;3.88;2.38;;;;;;;25.72;48.76;101341.78;21080417;28;20081;-59
2023/08/29 13:56:49;;;;;;;5.05;2.42;;;;;;;25.63;48.42;101349.19;21080177;28;20478;-59
2023/08/29 14:06:50;;;;;;;4.55;2.28;;;;;;;25.67;48.07;101348.28;21078902;28;20044;-60
2023/08/29 14:16:52;;;;;;;3.00;2.28;;;;;;;25.57;48.01;101328.84;21078464;28;20539;-58
2023/08/29 14:26:54;;;;;;;3.83;2.53;;;;;;;25.58;47.61;101331.31;21078405;28;20040;-58
2023/08/29 14:36:55;;;;;;;2.30;1.90;;;;;;;25.57;47.76;101357.69;21076262;28;20056;-59
2023/08/29 14:46:59;;;;;;;4.65;2.28;;;;;;;25.54;47.25;101324.66;21077141;28;20056;-58
2023/08/29 14:57:01;;;;;;;3.22;1.98;;;;;;;25.41;47.18;101305.78;21038031;28;20052;-59
2023/08/29 15:07:05;;;;;;;2.33;2.08;;;;;;;25.49;47.26;101312.69;20992140;28;20032;-59
2023/08/29 15:17:07;;;;;;;4.57;2.13;;;;;;;25.46;46.94;101324.50;20992267;28;20040;-59
2023/08/29 15:27:11;;;;;;;2.45;2.08;;;;;;;25.45;47.02;101311.63;20991729;28;20037;-60
2023/08/29 15:37:13;;;;;;;2.20;1.90;;;;;;;25.44;46.96;101318.38;20991313;28;20074;-60
2023/08/29 15:47:14;;;;;;;2.58;2.03;;;;;;;25.42;46.77;101303.81;21000274;28;20045;-59
2023/08/29 15:57:16;;;;;;;2.47;2.20;;;;;;;25.42;47.09;101303.81;21046015;28;20559;-58
2023/08/29 16:07:17;;;;;;;2.55;2.17;;;;;;;25.42;46.88;101298.22;21088971;28;20063;-58
2023/08/29 16:17:19;;;;;;;2.67;1.83;;;;;;;25.41;47.00;101277.78;21088822;28;20036;-58
2023/08/29 16:27:22;;;;;;;2.20;2.00;;;;;;;25.42;46.86;101281.41;21088579;28;20410;-60
2023/08/29 16:37:23;;;;;;;2.65;1.98;;;;;;;25.35;46.92;101263.03;21086950;28;20158;-59
2023/08/29 16:47:25;;;;;;;3.88;2.00;;;;;;;25.40;46.72;101272.50;21087076;28;20044;-59
2023/08/29 16:57:26;;;;;;;3.40;1.77;;;;;;;25.31;46.39;101253.56;21032091;28;20045;-58
2023/08/29 17:07:28;;;;;;;2.25;1.95;;;;;;;25.33;46.73;101256.88;21009480;28;20125;-59
2023/08/29 17:17:30;;;;;;;2.70;1.85;;;;;;;25.31;46.41;101235.91;21084989;28;20479;-60
2023/08/29 17:27:32;;;;;;;2.22;1.73;;;;;;;25.29;46.52;101222.22;21083496;28;20471;-59
2023/08/29 17:37:37;;;;;;;2.75;2.00;;;;;;;25.20;46.43;101195.19;21081518;28;20379;-60
2023/08/29 17:47:40;;;;;;;2.08;1.83;;;;;;;25.25;46.55;101215.56;21023432;28;20399;-59
2023/08/29 17:57:41;;;;;;;1.98;1.80;;;;;;;25.28;46.45;101212.13;21011365;28;20090;-59
2023/08/29 18:07:43;;;;;;;1.83;1.73;;;;;;;25.18;46.32;101192.69;20996757;28;20037;-59
2023/08/29 18:17:45;;;;;;;2.25;2.05;;;;;;;25.23;46.30;101177.78;20996157;28;20105;-58
2023/08/29 18:27:46;;;;;;;1.80;1.60;;;;;;;25.25;46.38;101173.56;20994472;28;20041;-58
2023/08/29 18:37:47;;;;;;;2.22;1.95;;;;;;;25.26;46.36;101161.22;20997810;28;20487;-58
2023/08/29 18:47:49;;;;;;;2.45;1.95;;;;;;;25.25;46.52;101141.91;21055790;28;20044;-59
2023/08/29 18:57:53;;;;;;;2.65;2.20;;;;;;;25.27;49.66;101090.03;21019104;28;20071;-60
2023/08/29 19:07:56;;;;;;;1.90;1.80;;;;;;;25.63;51.56;101108.19;21021816;28;20503;-60
2023/08/29 19:17:57;;;;;;;2.28;2.08;;;;;;;25.68;54.06;101082.84;21074061;28;20048;-62
2023/08/29 19:28:01;;;;;;;2.80;2.03;;;;;;;25.68;54.81;101064.06;21074062;28;20048;-60
2023/08/29 19:38:03;;;;;;;2.58;2.30;;;;;;;25.89;54.42;101074.88;21072162;28;20082;-59
2023/08/29 19:48:05;;;;;;;1.80;1.60;;;;;;;26.06;53.87;101061.06;21070255;28;20104;-59
2023/08/29 19:58:07;;;;;;;2.17;1.98;;;;;;;26.16;53.60;101021.59;21039062;28;20425;-59
2023/08/29 20:08:08;;;;;;;2.28;2.08;;;;;;;26.25;53.98;101013.25;21074083;28;20095;-60
2023/08/29 20:18:10;;;;;;;2.25;2.05;;;;;;;26.36;53.41;101004.28;21068529;28;20040;-59
2023/08/29 20:28:14;;;;;;;2.78;2.45;;;;;;;26.40;53.03;101012.09;21073951;28;20020;-59
2023/08/29 20:38:16;;;;;;;2.17;1.90;;;;;;;26.49;52.61;101004.59;21088566;28;20124;-59
2023/08/29 20:48:17;;;;;;;2.22;2.03;;;;;;;26.50;52.20;100990.25;21087605;28;20036;-59
2023/08/29 20:58:19;;;;;;;3.28;1.92;;;;;;;26.52;51.90;100982.31;21087582;28;20028;-59
2023/08/29 21:08:22;;;;;;;2.53;1.90;;;;;;;26.55;51.83;100978.06;21087228;28;20032;-59
2023/08/29 21:18:26;;;;;;;2.95;2.03;;;;;;;26.61;51.71;100976.78;21084974;28;20062;-59
2023/08/29 21:28:28;;;;;;;2.92;2.03;;;;;;;26.65;51.45;100972.19;21078717;28;20395;-59
2023/08/29 21:38:31;;;;;;;3.47;2.00;;;;;;;26.67;51.13;100964.31;21067071;28;20042;-59
2023/08/29 21:48:33;;;;;;;2.67;2.20;;;;;;;26.68;51.36;100951.91;21082401;28;20105;-58
2023/08/29 21:58:34;;;;;;;2.15;1.95;;;;;;;26.72;51.34;100936.09;21080531;28;20040;-58
2023/08/29 22:08:35;;;;;;;2.45;2.13;;;;;;;26.74;51.09;100945.00;21081545;28;20793;-59
2023/08/29 22:18:37;;;;;;;2.40;2.20;;;;;;;26.77;51.13;100944.38;21080533;28;20445;-62
2023/08/29 22:28:38;;;;;;;2.28;2.08;;;;;;;26.79;51.00;100944.88;21079880;28;20052;-58
2023/08/29 22:38:40;;;;;;;3.58;2.22;;;;;;;26.81;50.91;100936.16;21069524;28;20097;-59
2023/08/29 22:48:41;;;;;;;2.63;2.42;;;;;;;26.78;51.07;100920.75;21077630;28;20085;-61
2023/08/29 22:58:45;;;;;;;2.95;2.05;;;;;;;26.87;51.07;100920.81;21076200;28;20055;-60
2023/08/29 23:08:50;;;;;;;2.55;2.30;;;;;;;26.89;51.17;100906.44;21077708;28;20027;-63
2023/08/29 23:18:51;;;;;;;3.78;2.17;;;;;;;26.92;51.18;100914.22;21042821;28;20033;-59
2023/08/29 23:28:53;;;;;;;2.63;2.40;;;;;;;26.94;51.27;100906.28;20990819;28;20082;-60
2023/08/29 23:38:54;;;;;;;2.97;2.70;;;;;;;26.95;51.16;100907.97;21069208;28;20101;-59
2023/08/29 23:48:58;;;;;;;3.90;2.65;;;;;;;26.97;51.30;100914.09;21074155;28;20044;-60
2023/08/29 23:59:00;;;;;;;5.72;2.70;;;;;;;26.92;51.34;100891.78;21074587;28;20109;-59
